sensor_id;sensor_type;location;lat;lon;timestamp;P1;durP1;ratioP1;P2;durP2;ratioP2
34200;SDS011;20469;55.638;37.670;2022-08-01T00:01:12;9.60;;;4.88;;
34200;SDS011;20469;55.638;37.670;2022-08-01T00:03:40;10.25;;;4.85;;
34200;SDS011;20469;55.638;37.670;2022-08-01T00:06:07;10.55;;;4.90;;
34200;SDS011;20469;55.638;37.670;2022-08-01T00:08:34;12.52;;;4.50;;
34200;SDS011;20469;55.638;37.670;2022-08-01T00:11:02;13.00;;;5.20;;
34200;SDS011;20469;55.638;37.670;2022-08-01T00:13:40;11.13;;;5.03;;
34200;SDS011;20469;55.638;37.670;2022-08-01T00:16:07;14.30;;;5.18;;
34200;SDS011;20469;55.638;37.670;2022-08-01T00:18:35;13.73;;;5.43;;
34200;SDS011;20469;55.638;37.670;2022-08-01T00:21:03;10.88;;;4.82;;
34200;SDS011;20469;55.638;37.670;2022-08-01T00:23:30;13.27;;;5.80;;
34200;SDS011;20469;55.638;37.670;2022-08-01T00:25:58;9.85;;;4.85;;
34200;SDS011;20469;55.638;37.670;2022-08-01T00:28:26;13.57;;;4.88;;
34200;SDS011;20469;55.638;37.670;2022-08-01T00:30:53;11.25;;;4.93;;
34200;SDS011;20469;55.638;37.670;2022-08-01T00:33:20;13.95;;;5.28;;
34200;SDS011;20469;55.638;37.670;2022-08-01T00:35:47;14.52;;;5.07;;
34200;SDS011;20469;55.638;37.670;2022-08-01T00:38:14;10.18;;;5.53;;
34200;SDS011;20469;55.638;37.670;2022-08-01T00:40:41;12.05;;;5.18;;
34200;SDS011;20469;55.638;37.670;2022-08-01T00:43:09;11.48;;;5.15;;
34200;SDS011;20469;55.638;37.670;2022-08-01T00:45:37;13.02;;;5.32;;
34200;SDS011;20469;55.638;37.670;2022-08-01T00:48:04;11.73;;;4.90;;
34200;SDS011;20469;55.638;37.670;2022-08-01T00:50:31;9.85;;;4.88;;
34200;SDS011;20469;55.638;37.670;2022-08-01T00:52:59;13.35;;;5.57;;
34200;SDS011;20469;55.638;37.670;2022-08-01T00:55:28;12.98;;;5.25;;
34200;SDS011;20469;55.638;37.670;2022-08-01T00:57:57;9.88;;;4.85;;
34200;SDS011;20469;55.638;37.670;2022-08-01T01:03:18;10.98;;;5.22;;
34200;SDS011;20469;55.638;37.670;2022-08-01T01:05:56;12.20;;;6.03;;
34200;SDS011;20469;55.638;37.670;2022-08-01T01:08:32;12.27;;;5.40;;
34200;SDS011;20469;55.638;37.670;2022-08-01T01:11:17;9.88;;;5.38;;
34200;SDS011;20469;55.638;37.670;2022-08-01T01:13:54;11.90;;;5.00;;
34200;SDS011;20469;55.638;37.670;2022-08-01T01:16:28;12.02;;;5.47;;
34200;SDS011;20469;55.638;37.670;2022-08-01T01:19:00;12.93;;;5.07;;
34200;SDS011;20469;55.638;37.670;2022-08-01T01:21:33;10.70;;;5.38;;
34200;SDS011;20469;55.638;37.670;2022-08-01T01:29:41;11.60;;;5.28;;
34200;SDS011;20469;55.638;37.670;2022-08-01T01:32:32;13.80;;;5.60;;
34200;SDS011;20469;55.638;37.670;2022-08-01T01:35:05;8.27;;;4.72;;
34200;SDS011;20469;55.638;37.670;2022-08-01T01:37:36;9.75;;;5.43;;
34200;SDS011;20469;55.638;37.670;2022-08-01T01:40:06;12.25;;;5.70;;
34200;SDS011;20469;55.638;37.670;2022-08-01T01:42:36;14.50;;;5.82;;
34200;SDS011;20469;55.638;37.670;2022-08-01T01:45:05;9.15;;;5.28;;
34200;SDS011;20469;55.638;37.670;2022-08-01T01:47:33;15.18;;;5.45;;
34200;SDS011;20469;55.638;37.670;2022-08-01T01:50:03;9.35;;;5.20;;
34200;SDS011;20469;55.638;37.670;2022-08-01T01:52:33;15.15;;;5.93;;
34200;SDS011;20469;55.638;37.670;2022-08-01T01:55:01;12.60;;;5.88;;
34200;SDS011;20469;55.638;37.670;2022-08-01T01:57:33;14.32;;;6.47;;
34200;SDS011;20469;55.638;37.670;2022-08-01T02:00:05;13.90;;;5.82;;
34200;SDS011;20469;55.638;37.670;2022-08-01T02:02:35;16.08;;;6.20;;
34200;SDS011;20469;55.638;37.670;2022-08-01T02:05:04;15.43;;;6.47;;
34200;SDS011;20469;55.638;37.670;2022-08-01T02:07:33;15.10;;;7.18;;
34200;SDS011;20469;55.638;37.670;2022-08-01T02:10:02;18.55;;;7.93;;
34200;SDS011;20469;55.638;37.670;2022-08-01T02:12:35;16.30;;;8.13;;
34200;SDS011;20469;55.638;37.670;2022-08-01T02:15:05;12.07;;;7.57;;
34200;SDS011;20469;55.638;37.670;2022-08-01T02:17:33;17.35;;;7.00;;
34200;SDS011;20469;55.638;37.670;2022-08-01T02:20:06;11.35;;;6.57;;
34200;SDS011;20469;55.638;37.670;2022-08-01T02:22:34;13.75;;;6.18;;
34200;SDS011;20469;55.638;37.670;2022-08-01T02:25:10;12.45;;;6.72;;
34200;SDS011;20469;55.638;37.670;2022-08-01T02:27:58;10.73;;;6.35;;
34200;SDS011;20469;55.638;37.670;2022-08-01T02:30:46;13.10;;;6.43;;
34200;SDS011;20469;55.638;37.670;2022-08-01T02:33:16;11.93;;;6.30;;
34200;SDS011;20469;55.638;37.670;2022-08-01T02:35:52;14.68;;;6.53;;
34200;SDS011;20469;55.638;37.670;2022-08-01T02:38:44;14.43;;;5.95;;
34200;SDS011;20469;55.638;37.670;2022-08-01T02:41:19;11.25;;;5.38;;
34200;SDS011;20469;55.638;37.670;2022-08-01T02:43:52;12.88;;;5.72;;
34200;SDS011;20469;55.638;37.670;2022-08-01T02:46:34;11.63;;;5.13;;
34200;SDS011;20469;55.638;37.670;2022-08-01T02:49:05;10.80;;;5.15;;
34200;SDS011;20469;55.638;37.670;2022-08-01T02:51:35;11.18;;;5.90;;
34200;SDS011;20469;55.638;37.670;2022-08-01T02:54:03;11.00;;;5.25;;
34200;SDS011;20469;55.638;37.670;2022-08-01T02:56:33;12.48;;;5.50;;
34200;SDS011;20469;55.638;37.670;2022-08-01T02:59:06;8.38;;;4.82;;
34200;SDS011;20469;55.638;37.670;2022-08-01T03:01:38;9.43;;;5.30;;
34200;SDS011;20469;55.638;37.670;2022-08-01T03:04:08;10.68;;;5.28;;
34200;SDS011;20469;55.638;37.670;2022-08-01T03:06:37;6.50;;;4.68;;
34200;SDS011;20469;55.638;37.670;2022-08-01T03:09:09;13.10;;;6.35;;
34200;SDS011;20469;55.638;37.670;2022-08-01T03:11:39;8.38;;;4.82;;
34200;SDS011;20469;55.638;37.670;2022-08-01T03:14:09;9.82;;;4.88;;
34200;SDS011;20469;55.638;37.670;2022-08-01T03:16:39;8.98;;;5.07;;
34200;SDS011;20469;55.638;37.670;2022-08-01T03:19:09;9.35;;;5.35;;
34200;SDS011;20469;55.638;37.670;2022-08-01T03:21:39;8.57;;;4.90;;
34200;SDS011;20469;55.638;37.670;2022-08-01T03:24:09;9.63;;;5.30;;
34200;SDS011;20469;55.638;37.670;2022-08-01T03:26:38;9.10;;;5.03;;
34200;SDS011;20469;55.638;37.670;2022-08-01T03:29:06;7.50;;;4.30;;
34200;SDS011;20469;55.638;37.670;2022-08-01T03:31:53;7.53;;;4.30;;
34200;SDS011;20469;55.638;37.670;2022-08-01T03:34:21;9.18;;;4.57;;
34200;SDS011;20469;55.638;37.670;2022-08-01T03:36:55;8.05;;;5.10;;
34200;SDS011;20469;55.638;37.670;2022-08-01T03:39:31;5.68;;;4.43;;
34200;SDS011;20469;55.638;37.670;2022-08-01T03:42:07;9.23;;;5.45;;
34200;SDS011;20469;55.638;37.670;2022-08-01T03:44:38;10.32;;;4.78;;
34200;SDS011;20469;55.638;37.670;2022-08-01T03:47:08;6.88;;;4.07;;
34200;SDS011;20469;55.638;37.670;2022-08-01T03:49:41;10.02;;;5.13;;
34200;SDS011;20469;55.638;37.670;2022-08-01T03:52:10;8.73;;;4.82;;
34200;SDS011;20469;55.638;37.670;2022-08-01T03:54:40;7.35;;;4.40;;
34200;SDS011;20469;55.638;37.670;2022-08-01T03:57:12;7.95;;;4.68;;
34200;SDS011;20469;55.638;37.670;2022-08-01T04:00:00;8.10;;;4.45;;
34200;SDS011;20469;55.638;37.670;2022-08-01T04:02:32;9.32;;;4.07;;
34200;SDS011;20469;55.638;37.670;2022-08-01T04:04:59;5.72;;;3.75;;
34200;SDS011;20469;55.638;37.670;2022-08-01T04:07:31;7.43;;;4.18;;
34200;SDS011;20469;55.638;37.670;2022-08-01T04:09:59;8.82;;;4.07;;
34200;SDS011;20469;55.638;37.670;2022-08-01T04:12:26;8.93;;;4.78;;
34200;SDS011;20469;55.638;37.670;2022-08-01T04:14:53;7.28;;;4.38;;
34200;SDS011;20469;55.638;37.670;2022-08-01T04:17:20;8.35;;;4.20;;
34200;SDS011;20469;55.638;37.670;2022-08-01T04:19:47;4.78;;;3.47;;
34200;SDS011;20469;55.638;37.670;2022-08-01T04:22:15;6.13;;;3.60;;
34200;SDS011;20469;55.638;37.670;2022-08-01T04:24:44;6.40;;;4.65;;
34200;SDS011;20469;55.638;37.670;2022-08-01T04:27:25;7.57;;;3.80;;
34200;SDS011;20469;55.638;37.670;2022-08-01T04:30:17;5.75;;;3.70;;
34200;SDS011;20469;55.638;37.670;2022-08-01T04:32:49;6.72;;;3.47;;
34200;SDS011;20469;55.638;37.670;2022-08-01T04:35:18;5.80;;;3.50;;
34200;SDS011;20469;55.638;37.670;2022-08-01T04:38:08;6.07;;;3.47;;
34200;SDS011;20469;55.638;37.670;2022-08-01T04:40:36;13.40;;;5.25;;
34200;SDS011;20469;55.638;37.670;2022-08-01T04:43:05;7.97;;;3.80;;
34200;SDS011;20469;55.638;37.670;2022-08-01T04:45:34;6.75;;;4.80;;
34200;SDS011;20469;55.638;37.670;2022-08-01T04:48:04;8.23;;;3.47;;
34200;SDS011;20469;55.638;37.670;2022-08-01T04:50:35;7.18;;;4.40;;
34200;SDS011;20469;55.638;37.670;2022-08-01T04:53:03;11.77;;;3.88;;
34200;SDS011;20469;55.638;37.670;2022-08-01T04:55:30;11.77;;;3.55;;
34200;SDS011;20469;55.638;37.670;2022-08-01T04:57:57;10.13;;;5.72;;
34200;SDS011;20469;55.638;37.670;2022-08-01T05:00:25;7.53;;;4.32;;
34200;SDS011;20469;55.638;37.670;2022-08-01T05:02:53;9.30;;;4.20;;
34200;SDS011;20469;55.638;37.670;2022-08-01T05:05:20;8.13;;;3.67;;
34200;SDS011;20469;55.638;37.670;2022-08-01T05:07:50;7.82;;;3.80;;
34200;SDS011;20469;55.638;37.670;2022-08-01T05:10:17;7.70;;;3.53;;
34200;SDS011;20469;55.638;37.670;2022-08-01T05:12:44;5.78;;;3.60;;
34200;SDS011;20469;55.638;37.670;2022-08-01T05:15:13;7.72;;;3.47;;
34200;SDS011;20469;55.638;37.670;2022-08-01T05:17:41;5.80;;;4.13;;
34200;SDS011;20469;55.638;37.670;2022-08-01T05:20:11;5.07;;;2.70;;
34200;SDS011;20469;55.638;37.670;2022-08-01T05:22:55;6.00;;;3.95;;
34200;SDS011;20469;55.638;37.670;2022-08-01T05:25:23;5.85;;;2.45;;
34200;SDS011;20469;55.638;37.670;2022-08-01T05:28:10;8.82;;;3.38;;
34200;SDS011;20469;55.638;37.670;2022-08-01T05:30:44;7.28;;;3.10;;
34200;SDS011;20469;55.638;37.670;2022-08-01T05:33:12;5.88;;;3.05;;
34200;SDS011;20469;55.638;37.670;2022-08-01T05:35:39;5.20;;;3.20;;
34200;SDS011;20469;55.638;37.670;2022-08-01T05:38:15;7.10;;;2.75;;
34200;SDS011;20469;55.638;37.670;2022-08-01T05:40:42;6.28;;;3.38;;
34200;SDS011;20469;55.638;37.670;2022-08-01T05:43:09;6.05;;;2.70;;
34200;SDS011;20469;55.638;37.670;2022-08-01T05:45:37;5.78;;;2.60;;
34200;SDS011;20469;55.638;37.670;2022-08-01T05:48:04;4.15;;;2.50;;
34200;SDS011;20469;55.638;37.670;2022-08-01T05:50:32;7.90;;;2.55;;
34200;SDS011;20469;55.638;37.670;2022-08-01T05:53:00;6.88;;;2.30;;
34200;SDS011;20469;55.638;37.670;2022-08-01T05:55:27;6.55;;;2.10;;
34200;SDS011;20469;55.638;37.670;2022-08-01T05:58:01;6.18;;;2.90;;
34200;SDS011;20469;55.638;37.670;2022-08-01T06:00:29;4.75;;;2.20;;
34200;SDS011;20469;55.638;37.670;2022-08-01T06:02:56;2.85;;;2.20;;
34200;SDS011;20469;55.638;37.670;2022-08-01T06:05:23;4.35;;;2.22;;
34200;SDS011;20469;55.638;37.670;2022-08-01T06:07:50;4.53;;;2.30;;
34200;SDS011;20469;55.638;37.670;2022-08-01T06:10:17;7.38;;;2.58;;
34200;SDS011;20469;55.638;37.670;2022-08-01T06:12:45;8.18;;;2.83;;
34200;SDS011;20469;55.638;37.670;2022-08-01T06:15:12;6.68;;;2.25;;
34200;SDS011;20469;55.638;37.670;2022-08-01T06:17:40;6.60;;;2.30;;
34200;SDS011;20469;55.638;37.670;2022-08-01T06:20:08;4.38;;;2.40;;
34200;SDS011;20469;55.638;37.670;2022-08-01T06:22:35;9.40;;;2.33;;
34200;SDS011;20469;55.638;37.670;2022-08-01T06:25:03;6.15;;;2.22;;
34200;SDS011;20469;55.638;37.670;2022-08-01T06:27:33;3.97;;;2.00;;
34200;SDS011;20469;55.638;37.670;2022-08-01T06:30:00;5.13;;;2.40;;
34200;SDS011;20469;55.638;37.670;2022-08-01T06:32:29;3.65;;;2.13;;
34200;SDS011;20469;55.638;37.670;2022-08-01T06:35:00;4.18;;;2.25;;
34200;SDS011;20469;55.638;37.670;2022-08-01T06:37:29;6.97;;;1.98;;
34200;SDS011;20469;55.638;37.670;2022-08-01T06:40:03;6.10;;;2.20;;
34200;SDS011;20469;55.638;37.670;2022-08-01T06:42:32;4.22;;;2.20;;
34200;SDS011;20469;55.638;37.670;2022-08-01T06:45:03;6.00;;;2.10;;
34200;SDS011;20469;55.638;37.670;2022-08-01T06:47:31;4.63;;;1.85;;
34200;SDS011;20469;55.638;37.670;2022-08-01T06:49:59;5.60;;;2.97;;
34200;SDS011;20469;55.638;37.670;2022-08-01T06:52:28;8.60;;;1.77;;
34200;SDS011;20469;55.638;37.670;2022-08-01T06:54:55;5.60;;;2.50;;
34200;SDS011;20469;55.638;37.670;2022-08-01T06:57:49;8.27;;;2.17;;
34200;SDS011;20469;55.638;37.670;2022-08-01T07:00:18;7.68;;;2.50;;
34200;SDS011;20469;55.638;37.670;2022-08-01T07:02:52;8.77;;;2.50;;
34200;SDS011;20469;55.638;37.670;2022-08-01T07:05:21;5.60;;;2.58;;
34200;SDS011;20469;55.638;37.670;2022-08-01T07:07:49;5.03;;;2.10;;
34200;SDS011;20469;55.638;37.670;2022-08-01T07:10:26;11.57;;;2.83;;
34200;SDS011;20469;55.638;37.670;2022-08-01T07:12:53;5.45;;;1.98;;
34200;SDS011;20469;55.638;37.670;2022-08-01T07:15:20;5.47;;;2.10;;
34200;SDS011;20469;55.638;37.670;2022-08-01T07:17:52;6.03;;;2.10;;
34200;SDS011;20469;55.638;37.670;2022-08-01T07:20:20;5.53;;;2.10;;
34200;SDS011;20469;55.638;37.670;2022-08-01T07:22:47;8.23;;;2.20;;
34200;SDS011;20469;55.638;37.670;2022-08-01T07:25:16;2.90;;;2.08;;
34200;SDS011;20469;55.638;37.670;2022-08-01T07:27:44;6.10;;;2.08;;
34200;SDS011;20469;55.638;37.670;2022-08-01T07:30:12;4.32;;;1.80;;
34200;SDS011;20469;55.638;37.670;2022-08-01T07:32:39;2.95;;;2.00;;
34200;SDS011;20469;55.638;37.670;2022-08-01T07:35:07;5.30;;;2.00;;
34200;SDS011;20469;55.638;37.670;2022-08-01T07:37:34;6.07;;;2.50;;
34200;SDS011;20469;55.638;37.670;2022-08-01T07:40:16;6.13;;;2.35;;
34200;SDS011;20469;55.638;37.670;2022-08-01T07:42:44;5.00;;;3.08;;
34200;SDS011;20469;55.638;37.670;2022-08-01T07:45:12;5.50;;;2.70;;
34200;SDS011;20469;55.638;37.670;2022-08-01T07:47:40;6.43;;;2.85;;
34200;SDS011;20469;55.638;37.670;2022-08-01T07:50:07;5.45;;;2.33;;
34200;SDS011;20469;55.638;37.670;2022-08-01T07:52:35;6.65;;;2.28;;
34200;SDS011;20469;55.638;37.670;2022-08-01T07:55:02;3.78;;;1.90;;
34200;SDS011;20469;55.638;37.670;2022-08-01T07:57:30;5.50;;;2.30;;
34200;SDS011;20469;55.638;37.670;2022-08-01T07:59:57;4.22;;;2.30;;
34200;SDS011;20469;55.638;37.670;2022-08-01T08:02:25;6.95;;;2.63;;
34200;SDS011;20469;55.638;37.670;2022-08-01T08:04:52;5.35;;;2.40;;
34200;SDS011;20469;55.638;37.670;2022-08-01T08:07:19;5.35;;;2.28;;
34200;SDS011;20469;55.638;37.670;2022-08-01T08:09:47;3.83;;;2.55;;
34200;SDS011;20469;55.638;37.670;2022-08-01T08:12:16;4.30;;;2.60;;
34200;SDS011;20469;55.638;37.670;2022-08-01T08:14:54;5.40;;;2.47;;
34200;SDS011;20469;55.638;37.670;2022-08-01T08:17:22;6.20;;;2.55;;
34200;SDS011;20469;55.638;37.670;2022-08-01T08:19:50;6.60;;;2.88;;
34200;SDS011;20469;55.638;37.670;2022-08-01T08:22:17;4.05;;;2.58;;
34200;SDS011;20469;55.638;37.670;2022-08-01T08:24:54;10.80;;;3.05;;
34200;SDS011;20469;55.638;37.670;2022-08-01T08:27:26;4.88;;;2.85;;
34200;SDS011;20469;55.638;37.670;2022-08-01T08:29:53;6.38;;;2.40;;
34200;SDS011;20469;55.638;37.670;2022-08-01T08:32:20;5.57;;;2.78;;
34200;SDS011;20469;55.638;37.670;2022-08-01T08:34:47;6.40;;;2.40;;
34200;SDS011;20469;55.638;37.670;2022-08-01T08:37:15;4.40;;;2.17;;
34200;SDS011;20469;55.638;37.670;2022-08-01T08:39:43;4.30;;;2.67;;
34200;SDS011;20469;55.638;37.670;2022-08-01T08:42:10;3.83;;;2.17;;
34200;SDS011;20469;55.638;37.670;2022-08-01T08:44:40;2.65;;;2.05;;
34200;SDS011;20469;55.638;37.670;2022-08-01T08:47:10;5.35;;;2.00;;
34200;SDS011;20469;55.638;37.670;2022-08-01T08:49:45;5.07;;;2.30;;
34200;SDS011;20469;55.638;37.670;2022-08-01T08:52:15;3.53;;;1.90;;
34200;SDS011;20469;55.638;37.670;2022-08-01T08:54:44;3.45;;;1.90;;
34200;SDS011;20469;55.638;37.670;2022-08-01T08:57:13;3.97;;;2.10;;
34200;SDS011;20469;55.638;37.670;2022-08-01T08:59:44;6.80;;;2.13;;
34200;SDS011;20469;55.638;37.670;2022-08-01T09:02:11;5.32;;;1.80;;
34200;SDS011;20469;55.638;37.670;2022-08-01T09:04:39;3.92;;;1.83;;
34200;SDS011;20469;55.638;37.670;2022-08-01T09:07:07;6.28;;;2.30;;
34200;SDS011;20469;55.638;37.670;2022-08-01T09:09:37;2.30;;;1.80;;
34200;SDS011;20469;55.638;37.670;2022-08-01T09:12:07;3.15;;;1.50;;
34200;SDS011;20469;55.638;37.670;2022-08-01T09:14:36;4.53;;;2.03;;
34200;SDS011;20469;55.638;37.670;2022-08-01T09:17:11;4.07;;;1.70;;
34200;SDS011;20469;55.638;37.670;2022-08-01T09:19:40;4.72;;;2.00;;
34200;SDS011;20469;55.638;37.670;2022-08-01T09:22:10;7.05;;;1.80;;
34200;SDS011;20469;55.638;37.670;2022-08-01T09:24:40;2.88;;;1.90;;
34200;SDS011;20469;55.638;37.670;2022-08-01T09:27:18;2.58;;;1.70;;
34200;SDS011;20469;55.638;37.670;2022-08-01T09:29:48;1.92;;;1.33;;
34200;SDS011;20469;55.638;37.670;2022-08-01T09:32:30;3.37;;;1.70;;
34200;SDS011;20469;55.638;37.670;2022-08-01T09:35:21;3.37;;;1.60;;
34200;SDS011;20469;55.638;37.670;2022-08-01T09:38:19;5.05;;;1.70;;
34200;SDS011;20469;55.638;37.670;2022-08-01T09:43:15;2.85;;;1.60;;
34200;SDS011;20469;55.638;37.670;2022-08-01T09:45:44;1.65;;;1.48;;
34200;SDS011;20469;55.638;37.670;2022-08-01T09:48:16;2.58;;;1.80;;
34200;SDS011;20469;55.638;37.670;2022-08-01T09:50:46;3.58;;;2.13;;
34200;SDS011;20469;55.638;37.670;2022-08-01T09:53:15;3.97;;;2.00;;
34200;SDS011;20469;55.638;37.670;2022-08-01T09:56:08;5.35;;;2.15;;
34200;SDS011;20469;55.638;37.670;2022-08-01T09:58:58;2.83;;;1.92;;
34200;SDS011;20469;55.638;37.670;2022-08-01T10:01:47;3.10;;;1.77;;
34200;SDS011;20469;55.638;37.670;2022-08-01T10:04:19;3.08;;;1.45;;
34200;SDS011;20469;55.638;37.670;2022-08-01T10:06:49;2.78;;;1.70;;
34200;SDS011;20469;55.638;37.670;2022-08-01T10:09:28;3.80;;;1.50;;
34200;SDS011;20469;55.638;37.670;2022-08-01T10:12:07;3.22;;;1.80;;
34200;SDS011;20469;55.638;37.670;2022-08-01T10:14:42;3.78;;;2.03;;
34200;SDS011;20469;55.638;37.670;2022-08-01T10:17:18;3.15;;;2.08;;
34200;SDS011;20469;55.638;37.670;2022-08-01T10:19:48;2.80;;;1.60;;
34200;SDS011;20469;55.638;37.670;2022-08-01T10:22:17;2.88;;;1.65;;
34200;SDS011;20469;55.638;37.670;2022-08-01T10:24:46;2.45;;;1.67;;
34200;SDS011;20469;55.638;37.670;2022-08-01T10:27:16;2.78;;;1.45;;
34200;SDS011;20469;55.638;37.670;2022-08-01T10:29:51;3.70;;;1.60;;
34200;SDS011;20469;55.638;37.670;2022-08-01T10:32:49;5.85;;;1.80;;
34200;SDS011;20469;55.638;37.670;2022-08-01T10:35:22;3.75;;;2.13;;
34200;SDS011;20469;55.638;37.670;2022-08-01T10:38:10;3.08;;;1.67;;
34200;SDS011;20469;55.638;37.670;2022-08-01T10:40:39;4.85;;;1.90;;
34200;SDS011;20469;55.638;37.670;2022-08-01T10:43:12;4.20;;;1.88;;
34200;SDS011;20469;55.638;37.670;2022-08-01T10:45:48;3.05;;;1.63;;
34200;SDS011;20469;55.638;37.670;2022-08-01T10:51:17;5.05;;;1.65;;
34200;SDS011;20469;55.638;37.670;2022-08-01T10:53:50;1.60;;;1.40;;
34200;SDS011;20469;55.638;37.670;2022-08-01T10:56:26;2.88;;;1.60;;
34200;SDS011;20469;55.638;37.670;2022-08-01T10:59:32;3.53;;;1.60;;
34200;SDS011;20469;55.638;37.670;2022-08-01T11:02:28;2.88;;;1.38;;
34200;SDS011;20469;55.638;37.670;2022-08-01T11:05:00;4.57;;;1.45;;
34200;SDS011;20469;55.638;37.670;2022-08-01T11:07:37;5.43;;;1.90;;
34200;SDS011;20469;55.638;37.670;2022-08-01T11:10:10;3.75;;;1.60;;
34200;SDS011;20469;55.638;37.670;2022-08-01T11:13:10;3.13;;;1.80;;
34200;SDS011;20469;55.638;37.670;2022-08-01T11:15:39;2.92;;;1.58;;
34200;SDS011;20469;55.638;37.670;2022-08-01T11:20:57;2.95;;;1.75;;
34200;SDS011;20469;55.638;37.670;2022-08-01T11:23:49;3.05;;;1.63;;
34200;SDS011;20469;55.638;37.670;2022-08-01T11:26:23;2.40;;;1.70;;
34200;SDS011;20469;55.638;37.670;2022-08-01T11:29:11;4.38;;;2.15;;
34200;SDS011;20469;55.638;37.670;2022-08-01T11:31:47;2.03;;;1.60;;
34200;SDS011;20469;55.638;37.670;2022-08-01T11:34:15;4.22;;;2.05;;
34200;SDS011;20469;55.638;37.670;2022-08-01T11:36:42;2.60;;;1.73;;
34200;SDS011;20469;55.638;37.670;2022-08-01T11:39:29;2.80;;;1.42;;
34200;SDS011;20469;55.638;37.670;2022-08-01T11:42:17;2.55;;;1.38;;
34200;SDS011;20469;55.638;37.670;2022-08-01T11:44:49;4.80;;;1.45;;
34200;SDS011;20469;55.638;37.670;2022-08-01T11:47:18;3.70;;;1.60;;
34200;SDS011;20469;55.638;37.670;2022-08-01T11:50:06;2.70;;;1.63;;
34200;SDS011;20469;55.638;37.670;2022-08-01T11:53:02;4.03;;;1.60;;
34200;SDS011;20469;55.638;37.670;2022-08-01T11:55:32;3.53;;;1.52;;
34200;SDS011;20469;55.638;37.670;2022-08-01T11:58:05;6.88;;;2.03;;
34200;SDS011;20469;55.638;37.670;2022-08-01T12:00:51;5.88;;;2.70;;
34200;SDS011;20469;55.638;37.670;2022-08-01T12:03:26;4.13;;;2.17;;
34200;SDS011;20469;55.638;37.670;2022-08-01T12:05:59;4.40;;;2.40;;
34200;SDS011;20469;55.638;37.670;2022-08-01T12:08:28;16.33;;;5.50;;
34200;SDS011;20469;55.638;37.670;2022-08-01T12:10:56;5.15;;;2.10;;
34200;SDS011;20469;55.638;37.670;2022-08-01T12:13:46;5.30;;;1.98;;
34200;SDS011;20469;55.638;37.670;2022-08-01T12:16:14;3.08;;;1.80;;
34200;SDS011;20469;55.638;37.670;2022-08-01T12:18:42;4.93;;;2.22;;
34200;SDS011;20469;55.638;37.670;2022-08-01T12:21:09;3.50;;;2.25;;
34200;SDS011;20469;55.638;37.670;2022-08-01T12:23:37;2.47;;;1.70;;
34200;SDS011;20469;55.638;37.670;2022-08-01T12:26:05;6.68;;;2.08;;
34200;SDS011;20469;55.638;37.670;2022-08-01T12:28:38;3.80;;;2.00;;
34200;SDS011;20469;55.638;37.670;2022-08-01T12:31:06;5.10;;;2.00;;
34200;SDS011;20469;55.638;37.670;2022-08-01T12:33:33;3.05;;;1.92;;
34200;SDS011;20469;55.638;37.670;2022-08-01T12:36:00;4.40;;;2.50;;
34200;SDS011;20469;55.638;37.670;2022-08-01T12:38:28;3.65;;;2.03;;
34200;SDS011;20469;55.638;37.670;2022-08-01T12:40:59;3.28;;;1.85;;
34200;SDS011;20469;55.638;37.670;2022-08-01T12:43:26;4.38;;;2.35;;
34200;SDS011;20469;55.638;37.670;2022-08-01T12:45:58;9.07;;;2.60;;
34200;SDS011;20469;55.638;37.670;2022-08-01T12:48:27;6.10;;;2.30;;
34200;SDS011;20469;55.638;37.670;2022-08-01T12:50:56;4.15;;;2.03;;
34200;SDS011;20469;55.638;37.670;2022-08-01T12:53:26;13.93;;;4.38;;
34200;SDS011;20469;55.638;37.670;2022-08-01T12:56:07;10.38;;;4.00;;
34200;SDS011;20469;55.638;37.670;2022-08-01T12:58:37;3.83;;;1.95;;
34200;SDS011;20469;55.638;37.670;2022-08-01T13:01:08;2.90;;;1.65;;
34200;SDS011;20469;55.638;37.670;2022-08-01T13:03:38;3.17;;;2.22;;
34200;SDS011;20469;55.638;37.670;2022-08-01T13:06:10;5.00;;;3.55;;
34200;SDS011;20469;55.638;37.670;2022-08-01T13:08:39;3.83;;;1.60;;
34200;SDS011;20469;55.638;37.670;2022-08-01T13:11:08;4.28;;;1.90;;
34200;SDS011;20469;55.638;37.670;2022-08-01T13:13:43;3.25;;;1.60;;
34200;SDS011;20469;55.638;37.670;2022-08-01T13:16:18;3.25;;;2.10;;
34200;SDS011;20469;55.638;37.670;2022-08-01T13:19:03;2.70;;;1.27;;
34200;SDS011;20469;55.638;37.670;2022-08-01T13:21:32;3.88;;;1.40;;
34200;SDS011;20469;55.638;37.670;2022-08-01T13:24:26;3.65;;;2.05;;
34200;SDS011;20469;55.638;37.670;2022-08-01T13:26:58;4.15;;;2.00;;
34200;SDS011;20469;55.638;37.670;2022-08-01T13:29:33;5.43;;;1.80;;
34200;SDS011;20469;55.638;37.670;2022-08-01T13:32:16;4.57;;;1.88;;
34200;SDS011;20469;55.638;37.670;2022-08-01T13:35:06;4.35;;;2.63;;
34200;SDS011;20469;55.638;37.670;2022-08-01T13:37:39;5.78;;;1.90;;
34200;SDS011;20469;55.638;37.670;2022-08-01T13:40:08;5.72;;;2.03;;
34200;SDS011;20469;55.638;37.670;2022-08-01T13:42:36;3.30;;;1.50;;
34200;SDS011;20469;55.638;37.670;2022-08-01T13:45:05;2.65;;;1.50;;
34200;SDS011;20469;55.638;37.670;2022-08-01T13:47:41;6.20;;;2.22;;
34200;SDS011;20469;55.638;37.670;2022-08-01T13:50:28;6.60;;;1.88;;
34200;SDS011;20469;55.638;37.670;2022-08-01T13:52:56;6.40;;;1.63;;
34200;SDS011;20469;55.638;37.670;2022-08-01T13:55:23;4.18;;;1.75;;
34200;SDS011;20469;55.638;37.670;2022-08-01T13:57:50;4.57;;;1.70;;
34200;SDS011;20469;55.638;37.670;2022-08-01T14:00:18;7.05;;;1.98;;
34200;SDS011;20469;55.638;37.670;2022-08-01T14:02:45;4.40;;;1.95;;
34200;SDS011;20469;55.638;37.670;2022-08-01T14:05:12;4.20;;;1.85;;
34200;SDS011;20469;55.638;37.670;2022-08-01T14:07:40;5.07;;;1.67;;
34200;SDS011;20469;55.638;37.670;2022-08-01T14:10:07;5.53;;;2.15;;
34200;SDS011;20469;55.638;37.670;2022-08-01T14:12:45;4.53;;;1.40;;
34200;SDS011;20469;55.638;37.670;2022-08-01T14:15:14;2.75;;;1.90;;
34200;SDS011;20469;55.638;37.670;2022-08-01T14:18:01;4.25;;;1.70;;
34200;SDS011;20469;55.638;37.670;2022-08-01T14:20:32;2.83;;;1.40;;
34200;SDS011;20469;55.638;37.670;2022-08-01T14:23:03;3.55;;;2.10;;
34200;SDS011;20469;55.638;37.670;2022-08-01T14:25:35;2.70;;;1.92;;
34200;SDS011;20469;55.638;37.670;2022-08-01T14:28:26;3.00;;;2.05;;
34200;SDS011;20469;55.638;37.670;2022-08-01T14:30:55;3.05;;;1.95;;
34200;SDS011;20469;55.638;37.670;2022-08-01T14:33:23;4.93;;;2.25;;
34200;SDS011;20469;55.638;37.670;2022-08-01T14:35:51;2.75;;;1.73;;
34200;SDS011;20469;55.638;37.670;2022-08-01T14:38:39;4.40;;;2.00;;
34200;SDS011;20469;55.638;37.670;2022-08-01T14:41:06;3.22;;;1.60;;
34200;SDS011;20469;55.638;37.670;2022-08-01T14:43:34;5.22;;;1.90;;
34200;SDS011;20469;55.638;37.670;2022-08-01T14:46:09;3.92;;;1.95;;
34200;SDS011;20469;55.638;37.670;2022-08-01T14:48:36;3.10;;;2.20;;
34200;SDS011;20469;55.638;37.670;2022-08-01T14:51:04;5.90;;;1.90;;
34200;SDS011;20469;55.638;37.670;2022-08-01T14:53:33;3.45;;;1.83;;
34200;SDS011;20469;55.638;37.670;2022-08-01T14:56:05;3.45;;;1.70;;
34200;SDS011;20469;55.638;37.670;2022-08-01T14:58:34;6.43;;;1.80;;
34200;SDS011;20469;55.638;37.670;2022-08-01T15:01:01;7.15;;;2.08;;
34200;SDS011;20469;55.638;37.670;2022-08-01T15:03:31;2.40;;;1.58;;
34200;SDS011;20469;55.638;37.670;2022-08-01T15:05:58;5.07;;;2.00;;
34200;SDS011;20469;55.638;37.670;2022-08-01T15:08:25;7.57;;;2.10;;
34200;SDS011;20469;55.638;37.670;2022-08-01T15:10:53;4.93;;;2.70;;
34200;SDS011;20469;55.638;37.670;2022-08-01T15:13:20;2.72;;;1.50;;
34200;SDS011;20469;55.638;37.670;2022-08-01T15:15:48;3.90;;;2.03;;